sensor_id;sensor_type;location;lat;lon;timestamp;temperature;humidity
52743;DHT22;55583;53.012;6.556;2023-09-19T00:00:59;13.80;99.90
52743;DHT22;55583;53.012;6.556;2023-09-19T00:03:25;13.70;99.90
52743;DHT22;55583;53.012;6.556;2023-09-19T00:05:53;13.70;99.90
52743;DHT22;55583;53.012;6.556;2023-09-19T00:08:21;13.70;99.90
52743;DHT22;55583;53.012;6.556;2023-09-19T00:10:50;13.60;99.90
52743;DHT22;55583;53.012;6.556;2023-09-19T00:13:15;13.50;99.90
52743;DHT22;55583;53.012;6.556;2023-09-19T00:15:42;13.50;99.90
52743;DHT22;55583;53.012;6.556;2023-09-19T00:18:07;13.40;99.90
52743;DHT22;55583;53.012;6.556;2023-09-19T00:20:37;13.40;99.90
52743;DHT22;55583;53.012;6.556;2023-09-19T00:23:03;13.40;99.90
52743;DHT22;55583;53.012;6.556;2023-09-19T00:25:29;13.30;99.90
52743;DHT22;55583;53.012;6.556;2023-09-19T00:27:55;13.30;99.90
52743;DHT22;55583;53.012;6.556;2023-09-19T00:30:20;13.20;99.90
52743;DHT22;55583;53.012;6.556;2023-09-19T00:32:47;13.20;99.90
52743;DHT22;55583;53.012;6.556;2023-09-19T00:35:13;13.20;99.90
52743;DHT22;55583;53.012;6.556;2023-09-19T00:37:40;13.20;99.90
52743;DHT22;55583;53.012;6.556;2023-09-19T00:40:06;13.10;99.90
52743;DHT22;55583;53.012;6.556;2023-09-19T00:42:34;13.10;99.90
52743;DHT22;55583;53.012;6.556;2023-09-19T00:45:03;13.00;99.90
52743;DHT22;55583;53.012;6.556;2023-09-19T00:47:29;13.00;99.90
52743;DHT22;55583;53.012;6.556;2023-09-19T00:49:55;13.00;99.90
52743;DHT22;55583;53.012;6.556;2023-09-19T00:52:20;13.00;99.90
52743;DHT22;55583;53.012;6.556;2023-09-19T00:54:47;12.90;99.90
52743;DHT22;55583;53.012;6.556;2023-09-19T00:57:13;12.90;99.90
52743;DHT22;55583;53.012;6.556;2023-09-19T00:59:40;12.90;99.90
52743;DHT22;55583;53.012;6.556;2023-09-19T01:02:07;12.80;99.90
52743;DHT22;55583;53.012;6.556;2023-09-19T01:04:33;12.80;99.90
52743;DHT22;55583;53.012;6.556;2023-09-19T01:06:59;12.80;99.90
52743;DHT22;55583;53.012;6.556;2023-09-19T01:09:24;12.70;99.90
52743;DHT22;55583;53.012;6.556;2023-09-19T01:11:50;12.70;99.90
52743;DHT22;55583;53.012;6.556;2023-09-19T01:14:31;12.70;99.90
52743;DHT22;55583;53.012;6.556;2023-09-19T01:17:02;12.70;99.90
52743;DHT22;55583;53.012;6.556;2023-09-19T01:22:26;12.60;99.90
52743;DHT22;55583;53.012;6.556;2023-09-19T01:25:06;12.60;99.90
52743;DHT22;55583;53.012;6.556;2023-09-19T01:30:17;12.60;99.90
52743;DHT22;55583;53.012;6.556;2023-09-19T01:32:43;12.60;99.90
52743;DHT22;55583;53.012;6.556;2023-09-19T01:35:11;12.50;99.90
52743;DHT22;55583;53.012;6.556;2023-09-19T01:37:38;12.50;99.90
52743;DHT22;55583;53.012;6.556;2023-09-19T01:40:07;12.50;99.90
52743;DHT22;55583;53.012;6.556;2023-09-19T01:47:54;12.40;99.90
52743;DHT22;55583;53.012;6.556;2023-09-19T01:50:30;12.40;99.90
52743;DHT22;55583;53.012;6.556;2023-09-19T01:52:59;12.30;99.90
52743;DHT22;55583;53.012;6.556;2023-09-19T01:55:29;12.30;99.90
52743;DHT22;55583;53.012;6.556;2023-09-19T01:58:01;12.30;99.90
52743;DHT22;55583;53.012;6.556;2023-09-19T02:00:26;12.20;99.90
52743;DHT22;55583;53.012;6.556;2023-09-19T02:02:54;12.20;99.90
52743;DHT22;55583;53.012;6.556;2023-09-19T02:05:24;12.20;99.90
52743;DHT22;55583;53.012;6.556;2023-09-19T02:07:50;12.10;99.90
52743;DHT22;55583;53.012;6.556;2023-09-19T02:10:15;12.10;99.90
52743;DHT22;55583;53.012;6.556;2023-09-19T02:12:42;12.10;99.90
52743;DHT22;55583;53.012;6.556;2023-09-19T02:15:08;12.10;99.90
52743;DHT22;55583;53.012;6.556;2023-09-19T02:17:34;12.10;99.90
52743;DHT22;55583;53.012;6.556;2023-09-19T02:20:00;12.10;99.90
52743;DHT22;55583;53.012;6.556;2023-09-19T02:22:26;12.00;99.90
52743;DHT22;55583;53.012;6.556;2023-09-19T02:24:52;12.10;99.90
52743;DHT22;55583;53.012;6.556;2023-09-19T02:27:19;12.10;99.90
52743;DHT22;55583;53.012;6.556;2023-09-19T02:29:44;12.10;99.90
52743;DHT22;55583;53.012;6.556;2023-09-19T02:32:10;12.10;99.90
52743;DHT22;55583;53.012;6.556;2023-09-19T02:34:36;12.20;99.90
52743;DHT22;55583;53.012;6.556;2023-09-19T02:37:07;12.10;99.90
52743;DHT22;55583;53.012;6.556;2023-09-19T02:39:38;12.10;99.90
52743;DHT22;55583;53.012;6.556;2023-09-19T02:42:04;12.10;99.90
52743;DHT22;55583;53.012;6.556;2023-09-19T02:44:30;12.00;99.90
52743;DHT22;55583;53.012;6.556;2023-09-19T02:46:55;12.10;99.90
52743;DHT22;55583;53.012;6.556;2023-09-19T02:49:22;12.20;99.90
52743;DHT22;55583;53.012;6.556;2023-09-19T02:51:48;12.00;99.90
52743;DHT22;55583;53.012;6.556;2023-09-19T02:54:14;12.00;99.90
52743;DHT22;55583;53.012;6.556;2023-09-19T02:56:41;12.00;99.90
52743;DHT22;55583;53.012;6.556;2023-09-19T02:59:06;12.00;99.90
52743;DHT22;55583;53.012;6.556;2023-09-19T03:01:32;12.00;99.90
52743;DHT22;55583;53.012;6.556;2023-09-19T03:03:58;12.00;99.90
52743;DHT22;55583;53.012;6.556;2023-09-19T03:06:24;12.00;99.90
52743;DHT22;55583;53.012;6.556;2023-09-19T03:08:50;12.00;99.90
52743;DHT22;55583;53.012;6.556;2023-09-19T03:11:16;11.90;99.90
52743;DHT22;55583;53.012;6.556;2023-09-19T03:13:44;12.00;99.90
52743;DHT22;55583;53.012;6.556;2023-09-19T03:16:11;12.10;99.90
52743;DHT22;55583;53.012;6.556;2023-09-19T03:18:36;12.10;99.90
52743;DHT22;55583;53.012;6.556;2023-09-19T03:21:02;12.20;99.90
52743;DHT22;55583;53.012;6.556;2023-09-19T03:23:28;12.30;99.90
52743;DHT22;55583;53.012;6.556;2023-09-19T03:25:54;12.30;99.90
52743;DHT22;55583;53.012;6.556;2023-09-19T03:28:20;12.30;99.90
52743;DHT22;55583;53.012;6.556;2023-09-19T03:30:57;12.30;99.90
52743;DHT22;55583;53.012;6.556;2023-09-19T03:33:22;12.30;99.90
52743;DHT22;55583;53.012;6.556;2023-09-19T03:35:51;12.30;99.90
52743;DHT22;55583;53.012;6.556;2023-09-19T03:38:17;12.30;99.90
52743;DHT22;55583;53.012;6.556;2023-09-19T03:40:43;12.20;99.90
52743;DHT22;55583;53.012;6.556;2023-09-19T03:43:09;12.20;99.90
52743;DHT22;55583;53.012;6.556;2023-09-19T03:45:34;12.20;99.90
52743;DHT22;55583;53.012;6.556;2023-09-19T03:48:00;12.20;99.90
52743;DHT22;55583;53.012;6.556;2023-09-19T03:50:25;12.20;99.90
52743;DHT22;55583;53.012;6.556;2023-09-19T03:52:55;12.10;99.90
52743;DHT22;55583;53.012;6.556;2023-09-19T03:55:21;12.10;99.90
52743;DHT22;55583;53.012;6.556;2023-09-19T03:57:49;12.10;99.90
52743;DHT22;55583;53.012;6.556;2023-09-19T04:00:15;12.10;99.90
52743;DHT22;55583;53.012;6.556;2023-09-19T04:02:46;12.10;99.90
52743;DHT22;55583;53.012;6.556;2023-09-19T04:05:11;12.00;99.90
52743;DHT22;55583;53.012;6.556;2023-09-19T04:07:37;12.10;99.90
52743;DHT22;55583;53.012;6.556;2023-09-19T04:10:03;12.10;99.90
52743;DHT22;55583;53.012;6.556;2023-09-19T04:12:28;12.10;99.90
52743;DHT22;55583;53.012;6.556;2023-09-19T04:14:54;12.20;99.90
52743;DHT22;55583;53.012;6.556;2023-09-19T04:17:19;12.20;99.90
52743;DHT22;55583;53.012;6.556;2023-09-19T04:19:45;12.30;99.90
52743;DHT22;55583;53.012;6.556;2023-09-19T04:22:11;12.30;99.90
52743;DHT22;55583;53.012;6.556;2023-09-19T04:24:38;12.30;99.90
52743;DHT22;55583;53.012;6.556;2023-09-19T04:27:04;12.40;99.90
52743;DHT22;55583;53.012;6.556;2023-09-19T04:29:29;12.40;99.90
52743;DHT22;55583;53.012;6.556;2023-09-19T04:31:55;12.40;99.90
52743;DHT22;55583;53.012;6.556;2023-09-19T04:34:22;12.50;99.90
52743;DHT22;55583;53.012;6.556;2023-09-19T04:36:49;12.50;99.90
52743;DHT22;55583;53.012;6.556;2023-09-19T04:39:15;12.60;99.90
52743;DHT22;55583;53.012;6.556;2023-09-19T04:41:42;12.50;99.90
52743;DHT22;55583;53.012;6.556;2023-09-19T04:44:07;12.60;99.90
52743;DHT22;55583;53.012;6.556;2023-09-19T04:46:33;12.60;99.90
52743;DHT22;55583;53.012;6.556;2023-09-19T04:48:59;12.60;99.90
52743;DHT22;55583;53.012;6.556;2023-09-19T04:51:24;12.70;99.90
52743;DHT22;55583;53.012;6.556;2023-09-19T04:53:52;12.60;99.90
52743;DHT22;55583;53.012;6.556;2023-09-19T04:56:17;12.70;99.90
52743;DHT22;55583;53.012;6.556;2023-09-19T04:58:44;12.70;99.90
52743;DHT22;55583;53.012;6.556;2023-09-19T05:01:09;12.70;99.90
52743;DHT22;55583;53.012;6.556;2023-09-19T05:03:37;12.70;99.90
52743;DHT22;55583;53.012;6.556;2023-09-19T05:06:03;12.70;99.90
52743;DHT22;55583;53.012;6.556;2023-09-19T05:08:30;12.70;99.90
52743;DHT22;55583;53.012;6.556;2023-09-19T05:10:56;12.70;99.90
52743;DHT22;55583;53.012;6.556;2023-09-19T05:13:22;12.70;99.90
52743;DHT22;55583;53.012;6.556;2023-09-19T05:15:49;12.70;99.90
52743;DHT22;55583;53.012;6.556;2023-09-19T05:18:15;12.60;99.90
52743;DHT22;55583;53.012;6.556;2023-09-19T05:20:41;12.80;99.90
52743;DHT22;55583;53.012;6.556;2023-09-19T05:23:07;12.60;99.90
52743;DHT22;55583;53.012;6.556;2023-09-19T05:25:35;12.60;99.90
52743;DHT22;55583;53.012;6.556;2023-09-19T05:28:07;12.50;99.90
52743;DHT22;55583;53.012;6.556;2023-09-19T05:30:33;12.50;99.90
52743;DHT22;55583;53.012;6.556;2023-09-19T05:32:59;12.50;99.90
52743;DHT22;55583;53.012;6.556;2023-09-19T05:35:24;12.50;99.90
52743;DHT22;55583;53.012;6.556;2023-09-19T05:37:50;12.50;99.90
52743;DHT22;55583;53.012;6.556;2023-09-19T05:40:17;12.60;99.90
52743;DHT22;55583;53.012;6.556;2023-09-19T05:42:45;12.50;99.90
52743;DHT22;55583;53.012;6.556;2023-09-19T05:45:11;12.60;99.90
52743;DHT22;55583;53.012;6.556;2023-09-19T05:47:40;12.50;99.90
52743;DHT22;55583;53.012;6.556;2023-09-19T05:50:06;12.50;99.90
52743;DHT22;55583;53.012;6.556;2023-09-19T05:52:35;12.50;99.90
52743;DHT22;55583;53.012;6.556;2023-09-19T05:55:00;12.60;99.90
52743;DHT22;55583;53.012;6.556;2023-09-19T05:57:26;12.60;99.90
52743;DHT22;55583;53.012;6.556;2023-09-19T05:59:53;12.50;99.90
52743;DHT22;55583;53.012;6.556;2023-09-19T06:02:18;12.50;99.90
52743;DHT22;55583;53.012;6.556;2023-09-19T06:04:45;12.60;99.90
52743;DHT22;55583;53.012;6.556;2023-09-19T06:07:10;12.60;99.90
52743;DHT22;55583;53.012;6.556;2023-09-19T06:09:36;12.50;99.90
52743;DHT22;55583;53.012;6.556;2023-09-19T06:12:02;12.60;99.90
52743;DHT22;55583;53.012;6.556;2023-09-19T06:14:29;12.60;99.90
52743;DHT22;55583;53.012;6.556;2023-09-19T06:16:54;12.60;99.90
52743;DHT22;55583;53.012;6.556;2023-09-19T06:19:20;12.60;99.90
52743;DHT22;55583;53.012;6.556;2023-09-19T06:21:48;12.70;99.90
52743;DHT22;55583;53.012;6.556;2023-09-19T06:24:14;12.70;99.90
52743;DHT22;55583;53.012;6.556;2023-09-19T06:26:40;12.80;99.90
52743;DHT22;55583;53.012;6.556;2023-09-19T06:29:05;12.80;99.90
52743;DHT22;55583;53.012;6.556;2023-09-19T06:31:33;12.80;99.90
52743;DHT22;55583;53.012;6.556;2023-09-19T06:33:59;12.80;99.90
52743;DHT22;55583;53.012;6.556;2023-09-19T06:36:25;12.80;99.90
52743;DHT22;55583;53.012;6.556;2023-09-19T06:38:50;12.80;99.90
52743;DHT22;55583;53.012;6.556;2023-09-19T06:41:19;12.80;99.90
52743;DHT22;55583;53.012;6.556;2023-09-19T06:43:44;12.80;99.90
52743;DHT22;55583;53.012;6.556;2023-09-19T06:46:10;12.70;99.90
52743;DHT22;55583;53.012;6.556;2023-09-19T06:48:38;12.70;99.90
52743;DHT22;55583;53.012;6.556;2023-09-19T06:51:03;12.70;99.90
52743;DHT22;55583;53.012;6.556;2023-09-19T06:53:31;12.70;99.90
52743;DHT22;55583;53.012;6.556;2023-09-19T06:55:57;12.70;99.90
52743;DHT22;55583;53.012;6.556;2023-09-19T06:58:23;12.80;99.90
52743;DHT22;55583;53.012;6.556;2023-09-19T07:00:48;12.80;99.90
52743;DHT22;55583;53.012;6.556;2023-09-19T07:03:15;12.80;99.90
52743;DHT22;55583;53.012;6.556;2023-09-19T07:05:47;12.80;99.90
52743;DHT22;55583;53.012;6.556;2023-09-19T07:08:12;12.80;99.90
52743;DHT22;55583;53.012;6.556;2023-09-19T07:10:39;12.80;99.90
52743;DHT22;55583;53.012;6.556;2023-09-19T07:13:07;12.80;99.90
52743;DHT22;55583;53.012;6.556;2023-09-19T07:15:38;12.80;99.90
52743;DHT22;55583;53.012;6.556;2023-09-19T07:18:07;12.90;99.90
52743;DHT22;55583;53.012;6.556;2023-09-19T07:20:36;12.90;99.90
52743;DHT22;55583;53.012;6.556;2023-09-19T07:23:02;13.00;99.90
52743;DHT22;55583;53.012;6.556;2023-09-19T07:25:28;13.00;99.90
52743;DHT22;55583;53.012;6.556;2023-09-19T07:27:59;13.10;99.90
52743;DHT22;55583;53.012;6.556;2023-09-19T07:30:25;13.30;99.90
52743;DHT22;55583;53.012;6.556;2023-09-19T07:32:51;13.30;99.90
52743;DHT22;55583;53.012;6.556;2023-09-19T07:35:17;13.40;99.90
52743;DHT22;55583;53.012;6.556;2023-09-19T07:37:48;13.40;99.90
52743;DHT22;55583;53.012;6.556;2023-09-19T07:40:17;13.40;99.90
52743;DHT22;55583;53.012;6.556;2023-09-19T07:42:43;13.50;99.90
52743;DHT22;55583;53.012;6.556;2023-09-19T07:45:10;13.60;99.90
52743;DHT22;55583;53.012;6.556;2023-09-19T07:47:40;13.60;99.90
52743;DHT22;55583;53.012;6.556;2023-09-19T07:50:08;13.80;99.90
52743;DHT22;55583;53.012;6.556;2023-09-19T07:52:35;13.80;99.90
52743;DHT22;55583;53.012;6.556;2023-09-19T07:55:00;13.80;99.90
52743;DHT22;55583;53.012;6.556;2023-09-19T07:57:31;13.80;99.90
52743;DHT22;55583;53.012;6.556;2023-09-19T07:59:57;13.90;99.90
52743;DHT22;55583;53.012;6.556;2023-09-19T08:02:22;14.20;99.90
52743;DHT22;55583;53.012;6.556;2023-09-19T08:04:48;14.40;99.90
52743;DHT22;55583;53.012;6.556;2023-09-19T08:07:14;14.60;99.90
52743;DHT22;55583;53.012;6.556;2023-09-19T08:09:39;14.80;99.90
52743;DHT22;55583;53.012;6.556;2023-09-19T08:12:06;14.80;99.90
52743;DHT22;55583;53.012;6.556;2023-09-19T08:14:33;14.80;99.90
52743;DHT22;55583;53.012;6.556;2023-09-19T08:16:59;14.70;99.90
52743;DHT22;55583;53.012;6.556;2023-09-19T08:19:25;14.70;99.90
52743;DHT22;55583;53.012;6.556;2023-09-19T08:21:56;14.70;99.90
52743;DHT22;55583;53.012;6.556;2023-09-19T08:24:27;14.70;99.90
52743;DHT22;55583;53.012;6.556;2023-09-19T08:26:54;14.80;99.90
52743;DHT22;55583;53.012;6.556;2023-09-19T08:29:20;14.90;99.90
52743;DHT22;55583;53.012;6.556;2023-09-19T08:31:45;14.90;99.90
52743;DHT22;55583;53.012;6.556;2023-09-19T08:34:13;15.00;99.90
52743;DHT22;55583;53.012;6.556;2023-09-19T08:36:38;15.20;99.90
52743;DHT22;55583;53.012;6.556;2023-09-19T08:39:04;15.20;99.90
52743;DHT22;55583;53.012;6.556;2023-09-19T08:41:30;15.40;99.90
52743;DHT22;55583;53.012;6.556;2023-09-19T08:43:58;15.50;99.90
52743;DHT22;55583;53.012;6.556;2023-09-19T08:46:27;15.60;99.90
52743;DHT22;55583;53.012;6.556;2023-09-19T08:49:05;15.70;99.90
52743;DHT22;55583;53.012;6.556;2023-09-19T08:54:03;15.90;99.90
52743;DHT22;55583;53.012;6.556;2023-09-19T08:56:29;16.10;99.90
52743;DHT22;55583;53.012;6.556;2023-09-19T08:58:57;16.30;99.90
52743;DHT22;55583;53.012;6.556;2023-09-19T09:01:23;16.60;99.90
52743;DHT22;55583;53.012;6.556;2023-09-19T09:03:52;16.70;99.90
52743;DHT22;55583;53.012;6.556;2023-09-19T09:06:19;16.80;99.90
52743;DHT22;55583;53.012;6.556;2023-09-19T09:08:45;16.90;99.90
52743;DHT22;55583;53.012;6.556;2023-09-19T09:11:11;16.90;99.90
52743;DHT22;55583;53.012;6.556;2023-09-19T09:13:36;16.90;99.90
52743;DHT22;55583;53.012;6.556;2023-09-19T09:16:02;17.00;99.90
52743;DHT22;55583;53.012;6.556;2023-09-19T09:18:28;17.00;99.90
52743;DHT22;55583;53.012;6.556;2023-09-19T09:20:55;17.00;99.90
52743;DHT22;55583;53.012;6.556;2023-09-19T09:23:21;17.10;99.90
52743;DHT22;55583;53.012;6.556;2023-09-19T09:25:47;17.30;99.90
52743;DHT22;55583;53.012;6.556;2023-09-19T09:28:19;17.40;99.90
52743;DHT22;55583;53.012;6.556;2023-09-19T09:30:45;17.50;99.90
52743;DHT22;55583;53.012;6.556;2023-09-19T09:33:11;17.80;99.90
52743;DHT22;55583;53.012;6.556;2023-09-19T09:35:46;18.00;99.90
52743;DHT22;55583;53.012;6.556;2023-09-19T09:38:12;18.20;99.90
52743;DHT22;55583;53.012;6.556;2023-09-19T09:40:49;18.60;99.90
52743;DHT22;55583;53.012;6.556;2023-09-19T09:43:28;19.50;99.90
52743;DHT22;55583;53.012;6.556;2023-09-19T09:46:36;20.20;99.90
52743;DHT22;55583;53.012;6.556;2023-09-19T09:51:39;20.80;99.90
52743;DHT22;55583;53.012;6.556;2023-09-19T09:54:16;21.40;99.90
52743;DHT22;55583;53.012;6.556;2023-09-19T09:56:52;21.60;96.20
52743;DHT22;55583;53.012;6.556;2023-09-19T09:59:20;21.70;94.10
52743;DHT22;55583;53.012;6.556;2023-09-19T10:01:49;22.00;99.90
52743;DHT22;55583;53.012;6.556;2023-09-19T10:04:27;22.00;85.00
52743;DHT22;55583;53.012;6.556;2023-09-19T10:06:56;22.20;93.30
52743;DHT22;55583;53.012;6.556;2023-09-19T10:09:22;22.50;89.30
52743;DHT22;55583;53.012;6.556;2023-09-19T10:12:28;22.60;89.80
52743;DHT22;55583;53.012;6.556;2023-09-19T10:14:47;22.50;87.70
52743;DHT22;55583;53.012;6.556;2023-09-19T10:17:12;22.20;81.80
52743;DHT22;55583;53.012;6.556;2023-09-19T10:22:47;22.30;84.70
52743;DHT22;55583;53.012;6.556;2023-09-19T10:25:26;22.70;82.10
52743;DHT22;55583;53.012;6.556;2023-09-19T10:28:02;22.90;82.00
52743;DHT22;55583;53.012;6.556;2023-09-19T10:30:29;22.60;78.00
52743;DHT22;55583;53.012;6.556;2023-09-19T10:33:02;22.30;84.80
52743;DHT22;55583;53.012;6.556;2023-09-19T10:35:28;22.20;89.60
52743;DHT22;55583;53.012;6.556;2023-09-19T10:37:57;21.70;87.40
52743;DHT22;55583;53.012;6.556;2023-09-19T10:40:24;21.60;92.10
52743;DHT22;55583;53.012;6.556;2023-09-19T10:43:00;22.00;84.30
52743;DHT22;55583;53.012;6.556;2023-09-19T10:45:26;22.10;83.60
52743;DHT22;55583;53.012;6.556;2023-09-19T10:47:51;21.60;83.90
52743;DHT22;55583;53.012;6.556;2023-09-19T10:50:20;21.10;85.10
52743;DHT22;55583;53.012;6.556;2023-09-19T10:52:49;21.00;86.70
52743;DHT22;55583;53.012;6.556;2023-09-19T10:55:17;21.30;85.10
52743;DHT22;55583;53.012;6.556;2023-09-19T10:57:44;21.60;80.90
52743;DHT22;55583;53.012;6.556;2023-09-19T11:00:12;21.90;84.80
52743;DHT22;55583;53.012;6.556;2023-09-19T11:05:37;22.70;82.20
52743;DHT22;55583;53.012;6.556;2023-09-19T11:08:09;22.40;79.60
52743;DHT22;55583;53.012;6.556;2023-09-19T11:11:10;22.00;81.70
52743;DHT22;55583;53.012;6.556;2023-09-19T11:13:29;21.70;81.10
52743;DHT22;55583;53.012;6.556;2023-09-19T11:16:03;21.60;82.60
52743;DHT22;55583;53.012;6.556;2023-09-19T11:24:27;20.70;86.70
52743;DHT22;55583;53.012;6.556;2023-09-19T11:26:48;20.60;93.50
52743;DHT22;55583;53.012;6.556;2023-09-19T11:29:29;20.80;87.70
52743;DHT22;55583;53.012;6.556;2023-09-19T11:31:56;21.30;87.20
52743;DHT22;55583;53.012;6.556;2023-09-19T11:40:24;22.10;83.40
52743;DHT22;55583;53.012;6.556;2023-09-19T11:48:04;21.50;86.50
52743;DHT22;55583;53.012;6.556;2023-09-19T11:50:31;22.00;85.90
52743;DHT22;55583;53.012;6.556;2023-09-19T11:52:58;22.10;80.90
52743;DHT22;55583;53.012;6.556;2023-09-19T11:55:24;22.20;79.70
52743;DHT22;55583;53.012;6.556;2023-09-19T11:57:50;21.90;83.90
52743;DHT22;55583;53.012;6.556;2023-09-19T12:00:20;21.60;82.90
52743;DHT22;55583;53.012;6.556;2023-09-19T12:02:47;21.30;88.20
52743;DHT22;55583;53.012;6.556;2023-09-19T12:05:12;21.00;86.30
52743;DHT22;55583;53.012;6.556;2023-09-19T12:07:44;20.60;86.00
52743;DHT22;55583;53.012;6.556;2023-09-19T12:10:13;20.40;88.30
52743;DHT22;55583;53.012;6.556;2023-09-19T12:12:40;20.20;89.20
52743;DHT22;55583;53.012;6.556;2023-09-19T12:15:12;20.10;88.60
52743;DHT22;55583;53.012;6.556;2023-09-19T12:17:37;20.00;90.90
52743;DHT22;55583;53.012;6.556;2023-09-19T12:20:04;19.80;90.80
52743;DHT22;55583;53.012;6.556;2023-09-19T12:22:46;19.60;91.80
52743;DHT22;55583;53.012;6.556;2023-09-19T12:25:12;19.40;95.10
52743;DHT22;55583;53.012;6.556;2023-09-19T12:27:47;19.30;94.60
52743;DHT22;55583;53.012;6.556;2023-09-19T12:30:15;19.20;96.60
52743;DHT22;55583;53.012;6.556;2023-09-19T12:32:43;19.20;98.30
52743;DHT22;55583;53.012;6.556;2023-09-19T12:35:09;19.10;96.80
52743;DHT22;55583;53.012;6.556;2023-09-19T12:37:42;19.10;96.20
52743;DHT22;55583;53.012;6.556;2023-09-19T12:40:08;19.20;98.40
52743;DHT22;55583;53.012;6.556;2023-09-19T12:42:50;19.40;95.80
52743;DHT22;55583;53.012;6.556;2023-09-19T12:45:17;19.60;95.60
52743;DHT22;55583;53.012;6.556;2023-09-19T12:50:28;19.70;94.40
52743;DHT22;55583;53.012;6.556;2023-09-19T12:52:56;19.70;94.20
52743;DHT22;55583;53.012;6.556;2023-09-19T12:57:57;19.60;95.90
52743;DHT22;55583;53.012;6.556;2023-09-19T13:00:33;19.50;95.20
52743;DHT22;55583;53.012;6.556;2023-09-19T13:03:12;19.30;96.50
52743;DHT22;55583;53.012;6.556;2023-09-19T13:05:54;19.10;94.30
52743;DHT22;55583;53.012;6.556;2023-09-19T13:08:21;19.00;96.90
52743;DHT22;55583;53.012;6.556;2023-09-19T13:11:00;19.00;96.50
52743;DHT22;55583;53.012;6.556;2023-09-19T13:13:27;19.00;96.70
52743;DHT22;55583;53.012;6.556;2023-09-19T13:15:53;19.00;96.90
52743;DHT22;55583;53.012;6.556;2023-09-19T13:18:19;18.90;96.50
52743;DHT22;55583;53.012;6.556;2023-09-19T13:21:05;18.90;97.80
52743;DHT22;55583;53.012;6.556;2023-09-19T13:23:30;18.80;98.10
52743;DHT22;55583;53.012;6.556;2023-09-19T13:25:56;18.80;99.90
52743;DHT22;55583;53.012;6.556;2023-09-19T13:28:22;18.80;98.90
52743;DHT22;55583;53.012;6.556;2023-09-19T13:30:47;18.80;99.40
52743;DHT22;55583;53.012;6.556;2023-09-19T13:33:13;18.70;99.60
52743;DHT22;55583;53.012;6.556;2023-09-19T13:35:46;18.70;99.80
52743;DHT22;55583;53.012;6.556;2023-09-19T13:38:13;18.70;99.90
52743;DHT22;55583;53.012;6.556;2023-09-19T13:40:39;18.70;99.90
52743;DHT22;55583;53.012;6.556;2023-09-19T13:43:07;18.70;99.90
52743;DHT22;55583;53.012;6.556;2023-09-19T13:45:33;18.60;99.90
52743;DHT22;55583;53.012;6.556;2023-09-19T13:47:59;18.60;99.90
52743;DHT22;55583;53.012;6.556;2023-09-19T13:50:25;18.50;99.90
52743;DHT22;55583;53.012;6.556;2023-09-19T13:52:54;18.40;99.90
52743;DHT22;55583;53.012;6.556;2023-09-19T13:55:20;18.30;99.90
52743;DHT22;55583;53.012;6.556;2023-09-19T13:57:46;18.20;99.90
52743;DHT22;55583;53.012;6.556;2023-09-19T14:00:15;18.20;99.90
52743;DHT22;55583;53.012;6.556;2023-09-19T14:02:41;18.30;99.90
52743;DHT22;55583;53.012;6.556;2023-09-19T14:05:09;18.50;99.90
52743;DHT22;55583;53.012;6.556;2023-09-19T14:07:37;18.70;99.90
52743;DHT22;55583;53.012;6.556;2023-09-19T14:10:03;18.80;99.90
52743;DHT22;55583;53.012;6.556;2023-09-19T14:12:29;18.80;99.90
52743;DHT22;55583;53.012;6.556;2023-09-19T14:14:55;18.80;99.90
52743;DHT22;55583;53.012;6.556;2023-09-19T14:17:21;18.80;99.90
52743;DHT22;55583;53.012;6.556;2023-09-19T14:19:47;18.80;99.90
52743;DHT22;55583;53.012;6.556;2023-09-19T14:22:12;18.70;99.90
52743;DHT22;55583;53.012;6.556;2023-09-19T14:24:39;18.70;99.90
52743;DHT22;55583;53.012;6.556;2023-09-19T14:27:06;18.70;99.90
52743;DHT22;55583;53.012;6.556;2023-09-19T14:29:34;18.80;99.90
52743;DHT22;55583;53.012;6.556;2023-09-19T14:31:59;18.80;99.90
52743;DHT22;55583;53.012;6.556;2023-09-19T14:34:25;18.80;99.90
52743;DHT22;55583;53.012;6.556;2023-09-19T14:36:50;18.80;99.90
52743;DHT22;55583;53.012;6.556;2023-09-19T14:39:16;18.80;99.90
52743;DHT22;55583;53.012;6.556;2023-09-19T14:41:42;18.70;99.90
52743;DHT22;55583;53.012;6.556;2023-09-19T14:44:07;18.70;99.90
52743;DHT22;55583;53.012;6.556;2023-09-19T14:46:35;18.60;99.90
52743;DHT22;55583;53.012;6.556;2023-09-19T14:49:00;18.60;99.90
52743;DHT22;55583;53.012;6.556;2023-09-19T14:51:29;18.60;99.90
52743;DHT22;55583;53.012;6.556;2023-09-19T14:53:54;18.60;99.90
52743;DHT22;55583;53.012;6.556;2023-09-19T14:56:20;18.60;99.90
52743;DHT22;55583;53.012;6.556;2023-09-19T14:58:47;18.50;99.90
52743;DHT22;55583;53.012;6.556;2023-09-19T15:01:13;18.50;99.90
52743;DHT22;55583;53.012;6.556;2023-09-19T15:03:39;18.50;99.90
52743;DHT22;55583;53.012;6.556;2023-09-19T15:06:05;18.50;99.90
52743;DHT22;55583;53.012;6.556;2023-09-19T15:08:31;18.40;99.90
52743;DHT22;55583;53.012;6.556;2023-09-19T15:10:59;18.40;99.90
52743;DHT22;55583;53.012;6.556;2023-09-19T15:13:29;18.40;99.90
52743;DHT22;55583;53.012;6.556;2023-09-19T15:15:59;18.30;99.90
52743;DHT22;55583;53.012;6.556;2023-09-19T15:18:24;18.30;99.90
52743;DHT22;55583;53.012;6.556;2023-09-19T15:20:50;18.20;99.90
52743;DHT22;55583;53.012;6.556;2023-09-19T15:23:16;18.00;99.90
52743;DHT22;55583;53.012;6.556;2023-09-19T15:25:50;17.90;99.90
52743;DHT22;55583;53.012;6.556;2023-09-19T15:28:16;17.70;99.90
52743;DHT22;55583;53.012;6.556;2023-09-19T15:30:41;17.70;99.90
52743;DHT22;55583;53.012;6.556;2023-09-19T15:33:07;17.60;99.90
52743;DHT22;55583;53.012;6.556;2023-09-19T15:35:33;17.60;99.90
52743;DHT22;55583;53.012;6.556;2023-09-19T15:37:58;17.60;99.90
52743;DHT22;55583;53.012;6.556;2023-09-19T15:40:26;17.60;99.90
52743;DHT22;55583;53.012;6.556;2023-09-19T15:42:53;17.60;99.90
52743;DHT22;55583;53.012;6.556;2023-09-19T15:45:19;17.60;99.90
52743;DHT22;55583;53.012;6.556;2023-09-19T15:47:45;17.50;99.90
52743;DHT22;55583;53.012;6.556;2023-09-19T15:50:10;17.50;99.90
52743;DHT22;55583;53.012;6.556;2023-09-19T15:52:39;17.50;99.90
52743;DHT22;55583;53.012;6.556;2023-09-19T15:55:05;17.40;99.90
52743;DHT22;55583;53.012;6.556;2023-09-19T15:57:32;17.40;99.90
52743;DHT22;55583;53.012;6.556;2023-09-19T15:59:57;17.40;99.90
52743;DHT22;55583;53.012;6.556;2023-09-19T16:02:23;17.40;99.90
52743;DHT22;55583;53.012;6.556;2023-09-19T16:04:50;17.40;99.90
52743;DHT22;55583;53.012;6.556;2023-09-19T16:07:16;17.40;99.90
52743;DHT22;55583;53.012;6.556;2023-09-19T16:09:44;17.40;99.90
52743;DHT22;55583;53.012;6.556;2023-09-19T16:12:09;17.40;99.90
52743;DHT22;55583;53.012;6.556;2023-09-19T16:14:36;17.40;99.90
52743;DHT22;55583;53.012;6.556;2023-09-19T16:17:02;17.40;99.90